createdAt,value
2018-04-18T00:00:38.192Z,4.93
2018-04-18T00:03:06.254Z,5.50
2018-04-18T00:05:34.798Z,5.00
2018-04-18T00:08:02.862Z,4.83
2018-04-18T00:10:30.939Z,4.90
2018-04-18T00:12:59.335Z,4.80
2018-04-18T00:15:27.865Z,4.63
2018-04-18T00:17:55.930Z,5.10
2018-04-18T00:20:24.448Z,5.80
2018-04-18T00:22:52.510Z,5.90
2018-04-18T00:25:20.577Z,5.50
2018-04-18T00:27:48.806Z,5.60
2018-04-18T00:30:17.264Z,5.30
2018-04-18T00:32:45.335Z,5.53
2018-04-18T00:35:13.795Z,5.87
2018-04-18T00:37:41.848Z,6.00
2018-04-18T00:40:09.919Z,5.67
2018-04-18T00:42:38.631Z,6.10
2018-04-18T00:45:06.688Z,5.93
2018-04-18T00:47:34.792Z,5.80
2018-04-18T00:50:04.071Z,6.00
2018-04-18T00:52:32.128Z,6.30
2018-04-18T00:55:00.201Z,6.30
2018-04-18T00:57:28.581Z,6.60
2018-04-18T00:59:56.632Z,6.33
2018-04-18T01:02:24.697Z,6.77
2018-04-18T01:04:53.416Z,7.20
2018-04-18T01:07:21.475Z,6.53
2018-04-18T01:09:49.534Z,6.00
2018-04-18T01:12:17.945Z,5.90
2018-04-18T01:14:46.009Z,6.40
2018-04-18T01:17:14.559Z,6.30
2018-04-18T01:19:42.824Z,6.40
2018-04-18T01:22:10.872Z,6.17
2018-04-18T01:24:39.704Z,6.50
2018-04-18T01:27:08.242Z,5.87
2018-04-18T01:29:37.064Z,5.93
2018-04-18T01:32:05.134Z,6.47
2018-04-18T01:34:33.363Z,6.50
2018-04-18T01:37:01.414Z,6.37
2018-04-18T01:39:29.506Z,6.20
2018-04-18T01:41:57.876Z,6.97
2018-04-18T01:44:25.930Z,6.60
2018-04-18T01:46:54.010Z,7.03
2018-04-18T01:49:23.586Z,7.00
2018-04-18T01:51:51.637Z,6.63
2018-04-18T01:54:19.716Z,7.33
2018-04-18T01:56:48.131Z,6.67
2018-04-18T01:59:16.240Z,7.20
2018-04-18T02:01:44.258Z,6.87
2018-04-18T02:04:12.662Z,6.90
2018-04-18T02:06:40.725Z,7.33
2018-04-18T02:11:43.311Z,6.37
2018-04-18T02:14:11.383Z,7.10
2018-04-18T02:16:39.446Z,6.70
2018-04-18T02:19:08.508Z,6.77
2018-04-18T02:21:37.320Z,7.00
2018-04-18T02:24:05.374Z,7.30
2018-04-18T02:26:33.885Z,6.80
2018-04-18T02:29:01.986Z,7.87
2018-04-18T02:31:30.054Z,7.10
2018-04-18T02:33:58.732Z,7.03
2018-04-18T02:36:26.820Z,7.13
2018-04-18T02:38:55.647Z,6.97
2018-04-18T02:41:24.181Z,7.30
2018-04-18T02:43:52.251Z,7.30
2018-04-18T02:46:20.310Z,8.17
2018-04-18T02:48:48.701Z,7.60
2018-04-18T02:51:16.780Z,8.57
2018-04-18T02:53:44.847Z,8.27
2018-04-18T02:56:12.949Z,7.73
2018-04-18T02:58:41.024Z,9.40
2018-04-18T03:01:09.085Z,9.43
2018-04-18T03:03:37.424Z,8.13
2018-04-18T03:06:05.498Z,9.80
2018-04-18T03:08:33.556Z,9.87
2018-04-18T03:11:01.939Z,9.17
2018-04-18T03:13:30.020Z,9.87
2018-04-18T03:15:58.081Z,9.00
2018-04-18T03:18:26.244Z,9.53
2018-04-18T03:20:54.721Z,9.87
2018-04-18T03:23:23.284Z,10.50
2018-04-18T03:25:51.602Z,10.60
2018-04-18T03:28:19.661Z,9.10
2018-04-18T03:30:47.750Z,10.00
2018-04-18T03:33:15.853Z,9.90
2018-04-18T03:35:43.931Z,10.50
2018-04-18T03:38:12.021Z,9.50
2018-04-18T03:40:40.340Z,10.30
2018-04-18T03:43:08.408Z,10.90
2018-04-18T03:45:36.485Z,9.13
2018-04-18T03:48:04.921Z,10.50
2018-04-18T03:50:32.984Z,9.03
2018-04-18T03:53:01.054Z,9.80
2018-04-18T03:55:29.684Z,9.50
2018-04-18T03:57:57.773Z,9.40
2018-04-18T04:00:26.601Z,8.53
2018-04-18T04:02:55.129Z,8.43
2018-04-18T04:05:23.209Z,9.27
2018-04-18T04:07:51.273Z,8.93
2018-04-18T04:10:19.639Z,9.37
2018-04-18T04:12:47.741Z,10.60
2018-04-18T04:15:16.565Z,10.50
2018-04-18T04:17:56.329Z,10.50
2018-04-18T04:20:36.235Z,10.73
2018-04-18T04:23:17.343Z,11.00
2018-04-18T04:25:45.856Z,11.20
2018-04-18T04:28:13.927Z,11.57
2018-04-18T04:30:43.244Z,12.50
2018-04-18T04:33:12.549Z,10.90
2018-04-18T04:35:41.375Z,11.10
2018-04-18T04:38:09.477Z,10.97
2018-04-18T04:40:37.991Z,10.83
2018-04-18T04:43:06.053Z,11.00
2018-04-18T04:45:34.131Z,10.67
2018-04-18T04:48:02.485Z,10.60
2018-04-18T04:50:30.551Z,11.03
2018-04-18T04:52:58.650Z,10.90
2018-04-18T04:55:27.021Z,11.17
2018-04-18T04:57:55.090Z,12.10
2018-04-18T05:00:23.175Z,10.87
2018-04-18T05:02:52.461Z,11.93
2018-04-18T05:05:20.530Z,10.47
2018-04-18T05:07:48.615Z,10.30
2018-04-18T05:10:17.071Z,12.00
2018-04-18T05:12:45.120Z,11.17
2018-04-18T05:15:13.199Z,11.73
2018-04-18T05:17:41.813Z,11.70
2018-04-18T05:20:09.895Z,10.93
2018-04-18T05:22:38.730Z,12.00
2018-04-18T05:25:07.414Z,12.43
2018-04-18T05:27:35.496Z,11.33
2018-04-18T05:30:03.569Z,12.03
2018-04-18T05:32:32.071Z,13.10
2018-04-18T05:35:00.170Z,12.27
2018-04-18T05:37:28.999Z,11.70
2018-04-18T05:39:57.519Z,12.23
2018-04-18T05:42:25.609Z,11.90
2018-04-18T05:44:54.439Z,11.23
2018-04-18T05:47:22.655Z,11.60
2018-04-18T05:49:50.734Z,12.43
2018-04-18T05:52:18.805Z,12.90
2018-04-18T05:54:47.163Z,12.60
2018-04-18T05:57:15.235Z,12.30
2018-04-18T05:59:43.303Z,12.23
2018-04-18T06:02:11.991Z,11.07
2018-04-18T06:04:40.089Z,11.53
2018-04-18T06:07:09.341Z,12.33
2018-04-18T06:09:37.595Z,11.83
2018-04-18T06:12:05.669Z,12.27
2018-04-18T06:14:33.735Z,11.50
2018-04-18T06:17:02.265Z,11.03
2018-04-18T06:19:30.349Z,11.17
2018-04-18T06:21:58.447Z,10.97
2018-04-18T06:24:27.720Z,11.13
2018-04-18T06:26:56.757Z,11.00
2018-04-18T06:29:25.563Z,10.83
2018-04-18T06:31:54.076Z,11.93
2018-04-18T06:34:22.160Z,11.77
2018-04-18T06:36:50.225Z,10.55
2018-04-18T06:39:19.822Z,12.20
2018-04-18T06:41:47.916Z,12.63
2018-04-18T06:44:16.755Z,12.10
2018-04-18T06:46:45.275Z,12.50
2018-04-18T06:49:13.353Z,11.90
2018-04-18T06:51:41.422Z,12.20
2018-04-18T06:54:10.096Z,11.03
2018-04-18T06:56:38.157Z,12.83
2018-04-18T06:59:06.221Z,13.37
2018-04-18T07:01:34.642Z,11.20
2018-04-18T07:04:03.473Z,12.03
2018-04-18T07:06:31.541Z,12.33
2018-04-18T07:09:00.069Z,11.53
2018-04-18T07:11:28.127Z,12.30
2018-04-18T07:13:56.229Z,12.00
2018-04-18T07:16:25.489Z,12.67
2018-04-18T07:18:53.573Z,12.20
2018-04-18T07:21:21.703Z,11.80
2018-04-18T07:23:50.013Z,11.23
2018-04-18T07:26:18.089Z,12.17
2018-04-18T07:28:46.637Z,11.50
2018-04-18T07:31:15.171Z,12.00
2018-04-18T07:33:43.222Z,11.50
2018-04-18T07:36:11.328Z,12.70
2018-04-18T07:38:40.609Z,12.50
2018-04-18T07:41:08.682Z,13.87
2018-04-18T07:43:36.768Z,12.57
2018-04-18T07:46:06.032Z,12.60
2018-04-18T07:48:34.098Z,12.43
2018-04-18T07:51:02.378Z,12.60
2018-04-18T07:53:30.620Z,12.67
2018-04-18T07:55:58.691Z,12.03
2018-04-18T07:58:26.778Z,12.40
2018-04-18T08:00:55.200Z,11.70
2018-04-18T08:03:23.268Z,12.13
2018-04-18T08:05:51.342Z,12.73
2018-04-18T08:08:19.604Z,11.37
2018-04-18T08:10:47.682Z,12.00
2018-04-18T08:13:15.746Z,11.30
2018-04-18T08:15:44.142Z,11.70
2018-04-18T08:18:12.969Z,10.83
2018-04-18T08:20:41.042Z,11.97
2018-04-18T08:23:09.596Z,10.73
2018-04-18T08:25:38.436Z,10.60
2018-04-18T08:28:06.522Z,10.47
2018-04-18T08:30:34.870Z,9.80
2018-04-18T08:33:02.932Z,10.00
2018-04-18T08:35:31.018Z,10.47
2018-04-18T08:38:00.122Z,10.10
2018-04-18T08:40:28.189Z,10.90
2018-04-18T08:42:56.280Z,10.07
2018-04-18T08:45:24.987Z,8.17
2018-04-18T08:47:53.051Z,7.70
2018-04-18T08:50:21.142Z,7.37
2018-04-18T08:52:50.419Z,7.80
2018-04-18T08:55:18.479Z,6.90
2018-04-18T08:57:46.544Z,7.47
2018-04-18T09:00:14.943Z,7.37
2018-04-18T09:02:43.009Z,7.07
2018-04-18T09:05:11.085Z,8.17
2018-04-18T09:07:39.447Z,7.33
2018-04-18T09:10:07.518Z,7.50
2018-04-18T09:12:35.609Z,7.50
2018-04-18T09:15:03.993Z,7.17
2018-04-18T09:17:32.049Z,6.70
2018-04-18T09:20:00.110Z,7.80
2018-04-18T09:22:28.492Z,7.70
2018-04-18T09:24:56.545Z,7.60
2018-04-18T09:27:24.618Z,8.07
2018-04-18T09:29:53.019Z,8.70
2018-04-18T09:32:21.331Z,7.70
2018-04-18T09:34:49.397Z,9.50
2018-04-18T09:37:17.840Z,8.80
2018-04-18T09:39:45.982Z,8.80
2018-04-18T09:42:14.767Z,9.07
2018-04-18T09:44:43.285Z,7.97
2018-04-18T09:47:11.357Z,8.23
2018-04-18T09:49:39.422Z,7.90
2018-04-18T09:52:08.130Z,7.43
2018-04-18T09:54:36.189Z,8.00
2018-04-18T09:57:04.261Z,7.30
2018-04-18T09:59:32.972Z,7.43
2018-04-18T10:02:07.491Z,6.97
2018-04-18T10:04:51.425Z,6.43
2018-04-18T10:07:20.253Z,6.00
2018-04-18T10:09:48.565Z,5.80
2018-04-18T10:12:16.633Z,6.27
2018-04-18T10:14:44.711Z,6.10
2018-04-18T10:17:13.090Z,7.00
2018-04-18T10:19:41.154Z,6.60
2018-04-18T10:22:09.231Z,6.60
2018-04-18T10:24:37.608Z,6.63
2018-04-18T10:27:05.685Z,5.53
2018-04-18T10:29:33.748Z,5.70
2018-04-18T10:32:02.138Z,5.40
2018-04-18T10:34:30.871Z,5.90
2018-04-18T10:36:59.674Z,5.33
2018-04-18T10:39:28.202Z,5.03
2018-04-18T10:41:56.256Z,4.90
2018-04-18T10:44:24.311Z,4.93
2018-04-18T10:46:52.548Z,4.60
2018-04-18T10:49:20.605Z,4.63
2018-04-18T10:51:49.422Z,4.63
2018-04-18T10:54:18.005Z,4.73
2018-04-18T10:56:46.059Z,4.50
2018-04-18T10:59:14.105Z,4.50
2018-04-18T11:01:42.373Z,4.40
2018-04-18T11:04:10.430Z,4.20
2018-04-18T11:06:38.521Z,4.30
2018-04-18T11:09:07.197Z,4.57
2018-04-18T11:11:35.251Z,4.07
2018-04-18T11:14:03.331Z,4.80
2018-04-18T11:16:31.708Z,4.60
2018-04-18T11:18:59.770Z,4.40
2018-04-18T11:21:27.857Z,5.40
2018-04-18T11:23:56.546Z,4.43
2018-04-18T11:26:24.602Z,4.90
2018-04-18T11:28:52.672Z,5.23
2018-04-18T11:31:21.072Z,5.13
2018-04-18T11:33:49.134Z,4.80
2018-04-18T11:36:17.675Z,4.87
2018-04-18T11:38:46.185Z,4.70
2018-04-18T11:41:14.250Z,5.63
2018-04-18T11:43:42.341Z,4.97
2018-04-18T11:46:10.715Z,4.53
2018-04-18T11:48:38.767Z,5.20
2018-04-18T11:51:06.829Z,4.83
2018-04-18T11:53:35.241Z,4.83
2018-04-18T11:56:03.314Z,5.10
2018-04-18T11:58:31.370Z,4.30
2018-04-18T12:00:59.742Z,4.30
2018-04-18T12:03:27.818Z,5.40
2018-04-18T12:05:55.913Z,4.77
2018-04-18T12:08:24.066Z,5.13
2018-04-18T12:10:52.126Z,5.10
2018-04-18T12:13:20.203Z,5.70
2018-04-18T12:15:48.374Z,4.70
2018-04-18T12:18:16.431Z,4.60
2018-04-18T12:20:44.528Z,4.60
2018-04-18T12:23:13.010Z,3.70
2018-04-18T12:25:41.066Z,3.70
2018-04-18T12:28:09.144Z,4.03
2018-04-18T12:30:37.833Z,3.50
2018-04-18T12:33:05.924Z,3.77
2018-04-18T12:35:33.985Z,3.37
2018-04-18T12:38:02.241Z,2.90
2018-04-18T12:40:30.320Z,3.43
2018-04-18T12:42:58.385Z,3.23
2018-04-18T12:45:26.877Z,2.97
2018-04-18T12:47:54.945Z,3.20
2018-04-18T12:50:23.017Z,3.37
2018-04-18T12:52:51.704Z,3.33
2018-04-18T12:55:19.794Z,3.00
2018-04-18T12:57:47.855Z,3.50
2018-04-18T13:00:16.229Z,3.10
2018-04-18T13:02:44.324Z,3.30
2018-04-18T13:05:13.151Z,3.30
2018-04-18T13:07:41.671Z,2.90
2018-04-18T13:10:09.741Z,2.90
2018-04-18T13:12:37.796Z,2.90
2018-04-18T13:15:06.191Z,3.17
2018-04-18T13:17:34.290Z,2.60
2018-04-18T13:20:03.117Z,2.60
2018-04-18T13:22:31.627Z,2.50
2018-04-18T13:24:59.710Z,2.50
2018-04-18T13:27:27.764Z,2.70
2018-04-18T13:29:56.150Z,2.60
2018-04-18T13:32:24.219Z,2.23
2018-04-18T13:34:52.288Z,2.37
2018-04-18T13:37:20.672Z,2.40
2018-04-18T13:39:49.522Z,2.40
2018-04-18T13:42:17.584Z,2.27
2018-04-18T13:44:46.120Z,2.57
2018-04-18T13:47:14.197Z,3.00
2018-04-18T13:49:42.300Z,2.30
2018-04-18T13:52:11.560Z,2.27
2018-04-18T13:54:39.675Z,2.30
2018-04-18T13:57:07.710Z,2.50
2018-04-18T13:59:36.083Z,2.40
2018-04-18T14:02:04.155Z,2.20
2018-04-18T14:04:32.234Z,2.33
2018-04-18T14:07:00.596Z,2.30
2018-04-18T14:09:28.651Z,2.40
2018-04-18T14:11:56.748Z,2.40
2018-04-18T14:14:25.114Z,2.33
2018-04-18T14:16:53.177Z,2.07
2018-04-18T14:19:21.243Z,1.97
2018-04-18T14:21:49.638Z,2.13
2018-04-18T14:24:17.729Z,2.10
2018-04-18T14:26:45.802Z,2.50
2018-04-18T14:29:14.461Z,2.03
2018-04-18T14:31:42.665Z,2.20
2018-04-18T14:34:11.486Z,2.33
2018-04-18T14:36:40.218Z,2.07
2018-04-18T14:39:08.282Z,2.03
2018-04-18T14:41:36.831Z,2.30
2018-04-18T14:44:05.096Z,2.17
2018-04-18T14:46:33.145Z,2.37
2018-04-18T14:49:01.969Z,2.37
2018-04-18T14:51:30.501Z,2.00
2018-04-18T14:53:58.570Z,2.13
2018-04-18T14:56:26.624Z,2.10
2018-04-18T14:58:55.119Z,2.10
2018-04-18T15:01:23.134Z,2.60
2018-04-18T15:03:51.212Z,2.10
2018-04-18T15:06:19.846Z,2.20
2018-04-18T15:08:47.903Z,2.33
2018-04-18T15:11:15.953Z,2.30
2018-04-18T15:13:44.393Z,2.20
2018-04-18T15:16:12.453Z,2.23
2018-04-18T15:18:41.267Z,2.00
2018-04-18T15:21:09.822Z,2.03
2018-04-18T15:23:38.642Z,2.20
2018-04-18T15:26:06.693Z,2.00
2018-04-18T15:28:35.308Z,2.20
2018-04-18T15:31:04.125Z,2.30
2018-04-18T15:33:32.186Z,2.70
2018-04-18T15:36:00.679Z,2.23
2018-04-18T15:38:28.765Z,2.53
2018-04-18T15:40:56.835Z,2.30
2018-04-18T15:43:25.680Z,2.00
2018-04-18T15:45:53.741Z,2.17
2018-04-18T15:48:21.791Z,2.37
2018-04-18T15:50:50.043Z,2.27
2018-04-18T15:53:18.105Z,2.50
2018-04-18T15:55:46.160Z,2.60
2018-04-18T15:58:14.545Z,2.63
2018-04-18T16:00:42.638Z,2.80
2018-04-18T16:03:10.701Z,2.17
2018-04-18T16:05:39.067Z,2.80
2018-04-18T16:08:07.145Z,2.77
2018-04-18T16:10:35.210Z,3.70
2018-04-18T16:13:03.917Z,3.50
2018-04-18T16:15:32.808Z,2.47
2018-04-18T16:18:00.862Z,2.70
2018-04-18T16:20:28.912Z,2.70
2018-04-18T16:22:57.442Z,2.90
2018-04-18T16:25:26.268Z,2.30
2018-04-18T16:27:54.330Z,2.30
2018-04-18T16:30:34.504Z,2.70
2018-04-18T16:33:03.215Z,2.70
2018-04-18T16:35:31.320Z,2.20
2018-04-18T16:38:00.161Z,2.30
2018-04-18T16:40:28.356Z,2.80
2018-04-18T16:42:56.445Z,3.47
2018-04-18T16:45:25.440Z,2.93
2018-04-18T16:47:54.698Z,2.87
2018-04-18T16:50:22.768Z,2.53
2018-04-18T16:52:50.832Z,2.90
2018-04-18T16:55:19.256Z,2.70
2018-04-18T16:57:48.080Z,2.80
2018-04-18T17:00:16.147Z,2.60
2018-04-18T17:02:44.714Z,2.50
2018-04-18T17:05:13.536Z,2.70
2018-04-18T17:07:41.596Z,2.77
2018-04-18T17:10:10.121Z,2.63
2018-04-18T17:12:38.191Z,2.60
2018-04-18T17:15:06.294Z,2.57
2018-04-18T17:17:35.287Z,2.50
2018-04-18T17:20:04.123Z,2.63
2018-04-18T17:22:32.191Z,2.40
2018-04-18T17:25:00.701Z,2.60
2018-04-18T17:27:28.762Z,2.43
2018-04-18T17:29:56.814Z,2.13
2018-04-18T17:32:25.223Z,2.40
2018-04-18T17:34:53.276Z,2.70
2018-04-18T17:37:21.335Z,2.10
2018-04-18T17:39:49.775Z,2.20
2018-04-18T17:42:18.595Z,2.00
2018-04-18T17:44:46.644Z,2.53
2018-04-18T17:47:15.494Z,2.60
2018-04-18T17:49:43.532Z,2.47
2018-04-18T17:52:11.578Z,2.30
2018-04-18T17:54:40.020Z,2.30
2018-04-18T17:57:08.061Z,2.80
2018-04-18T17:59:36.138Z,3.00
2018-04-18T18:02:04.514Z,2.90
2018-04-18T18:04:32.570Z,2.87
2018-04-18T18:07:00.646Z,5.03
2018-04-18T18:09:29.040Z,7.20
2018-04-18T18:11:57.101Z,6.57
2018-04-18T18:14:25.200Z,5.50
2018-04-18T18:16:53.574Z,9.30
2018-04-18T18:19:21.641Z,13.30
2018-04-18T18:21:49.736Z,5.30
2018-04-18T18:24:18.868Z,3.70
2018-04-18T18:26:46.934Z,3.73
2018-04-18T18:29:15.004Z,3.30
2018-04-18T18:31:43.235Z,8.27
2018-04-18T18:34:11.284Z,8.07
2018-04-18T18:36:39.382Z,6.93
2018-04-18T18:39:08.067Z,7.00
2018-04-18T18:41:36.134Z,6.23
2018-04-18T18:44:04.195Z,4.20
2018-04-18T18:46:32.592Z,4.70
2018-04-18T18:49:01.110Z,3.80
2018-04-18T18:51:29.178Z,4.90
2018-04-18T18:53:57.543Z,3.67
2018-04-18T18:56:25.598Z,3.40
2018-04-18T18:58:53.664Z,3.40
2018-04-18T19:01:23.104Z,3.53
2018-04-18T19:03:51.189Z,3.80
2018-04-18T19:06:19.393Z,3.70
2018-04-18T19:08:47.968Z,3.70
2018-04-18T19:11:16.029Z,2.80
2018-04-18T19:13:44.136Z,4.20
2018-04-18T19:16:12.500Z,3.70
2018-04-18T19:18:40.561Z,3.70
2018-04-18T19:21:08.636Z,3.60
2018-04-18T19:23:37.322Z,3.60
2018-04-18T19:26:05.394Z,3.97
2018-04-18T19:28:33.631Z,3.57
2018-04-18T19:31:01.626Z,3.27
2018-04-18T19:33:29.684Z,3.40
2018-04-18T19:35:57.790Z,3.10
2018-04-18T19:38:26.406Z,3.70
2018-04-18T19:40:54.460Z,3.70
2018-04-18T19:43:23.288Z,5.80
2018-04-18T19:45:51.518Z,5.40
2018-04-18T19:48:20.358Z,4.30
2018-04-18T19:50:49.043Z,3.60
2018-04-18T19:53:17.570Z,3.93
2018-04-18T19:55:45.640Z,3.33
2018-04-18T19:58:14.064Z,4.07
2018-04-18T20:00:42.703Z,4.20
2018-04-18T20:03:10.757Z,4.37
2018-04-18T20:05:38.818Z,3.97
2018-04-18T20:08:07.251Z,4.00
2018-04-18T20:10:36.061Z,4.27
2018-04-18T20:13:04.131Z,5.57
2018-04-18T20:15:32.666Z,4.70
2018-04-18T20:18:00.736Z,5.50
2018-04-18T20:20:28.793Z,5.37
2018-04-18T20:22:56.911Z,5.13
2018-04-18T20:25:24.973Z,5.10
2018-04-18T20:27:53.793Z,5.80
2018-04-18T20:30:22.014Z,5.97
2018-04-18T20:32:50.125Z,6.23
2018-04-18T20:35:18.191Z,5.37
2018-04-18T20:37:46.511Z,6.07
2018-04-18T20:40:14.591Z,5.93
2018-04-18T20:42:48.553Z,7.10
2018-04-18T20:45:17.238Z,6.00
2018-04-18T20:47:45.303Z,6.50
2018-04-18T20:50:13.375Z,6.40
2018-04-18T20:52:42.839Z,6.40
2018-04-18T20:55:10.888Z,7.10
2018-04-18T20:57:39.716Z,6.83
2018-04-18T21:00:08.879Z,7.67
2018-04-18T21:02:36.937Z,7.00
2018-04-18T21:05:05.008Z,6.50
2018-04-18T21:07:34.140Z,6.97
2018-04-18T21:10:02.231Z,5.03
2018-04-18T21:12:31.400Z,5.37
2018-04-18T21:15:00.270Z,6.47
2018-04-18T21:17:28.331Z,6.23
2018-04-18T21:19:56.380Z,5.90
2018-04-18T21:22:25.011Z,6.80
2018-04-18T21:24:53.094Z,6.43
2018-04-18T21:27:21.144Z,6.43
2018-04-18T21:29:49.546Z,6.60
2018-04-18T21:32:17.608Z,6.03
2018-04-18T21:34:45.682Z,7.23
2018-04-18T21:37:14.046Z,7.10
2018-04-18T21:39:42.124Z,6.90
2018-04-18T21:42:10.184Z,7.57
2018-04-18T21:44:38.568Z,6.93
2018-04-18T21:47:06.636Z,5.70
2018-04-18T21:49:34.697Z,7.57
2018-04-18T21:52:03.104Z,8.30
2018-04-18T21:54:31.828Z,7.83
2018-04-18T21:57:00.630Z,6.83
2018-04-18T21:59:29.136Z,7.80
2018-04-18T22:01:57.728Z,7.47
2018-04-18T22:04:25.784Z,9.33
2018-04-18T22:06:54.285Z,10.07
2018-04-18T22:09:22.356Z,8.73
2018-04-18T22:11:50.414Z,7.67
2018-04-18T22:14:18.807Z,9.17
2018-04-18T22:16:46.944Z,8.60
2018-04-18T22:19:14.944Z,8.00
2018-04-18T22:21:43.324Z,9.13
2018-04-18T22:24:11.400Z,9.30
2018-04-18T22:26:39.452Z,9.17
2018-04-18T22:29:07.876Z,9.97
2018-04-18T22:31:36.705Z,8.67
2018-04-18T22:34:04.769Z,7.80
2018-04-18T22:36:33.293Z,9.20
2018-04-18T22:39:01.357Z,8.77
2018-04-18T22:41:29.421Z,9.37
2018-04-18T22:43:58.150Z,9.53
2018-04-18T22:46:26.975Z,8.90
2018-04-18T22:48:55.037Z,9.30
2018-04-18T22:51:23.559Z,8.90
2018-04-18T22:53:51.618Z,8.83
2018-04-18T22:56:20.175Z,8.60
2018-04-18T22:58:48.690Z,8.27
2018-04-18T23:01:16.748Z,8.50
2018-04-18T23:03:44.820Z,8.80
2018-04-18T23:06:13.204Z,9.07
2018-04-18T23:08:41.279Z,8.63
2018-04-18T23:11:09.363Z,7.97
2018-04-18T23:13:37.788Z,8.23
2018-04-18T23:16:05.862Z,8.70
2018-04-18T23:18:33.928Z,8.43
2018-04-18T23:21:02.554Z,8.63
2018-04-18T23:23:30.653Z,8.97
2018-04-18T23:25:59.492Z,9.17
2018-04-18T23:28:27.993Z,9.67
2018-04-18T23:30:56.074Z,9.57
2018-04-18T23:33:24.133Z,8.93
2018-04-18T23:35:52.536Z,9.23
2018-04-18T23:38:20.632Z,9.03
2018-04-18T23:40:48.703Z,10.23
2018-04-18T23:43:17.705Z,10.27
2018-04-18T23:45:45.805Z,9.90
2018-04-18T23:48:13.864Z,10.20
2018-04-18T23:50:42.193Z,10.60
2018-04-18T23:53:10.285Z,9.83
2018-04-18T23:55:39.118Z,10.80
2018-04-18T23:58:08.095Z,11.90
